createdAt,value
2024-01-03T00:20:42.433Z,85469.97
2024-01-03T00:23:14.318Z,85516.50
2024-01-03T00:25:41.935Z,85519.25
2024-01-03T00:28:09.328Z,85517.19
2024-01-03T00:30:36.689Z,85517.94
2024-01-03T01:21:38.646Z,85485.19
2024-01-03T09:15:15.212Z,85369.41
2024-01-03T09:17:44.969Z,85307.25
2024-01-03T09:20:12.798Z,85307.97
2024-01-03T09:22:40.106Z,85379.13
2024-01-03T09:25:07.567Z,85366.75
2024-01-03T09:27:34.792Z,85371.56
2024-01-03T09:30:02.538Z,85363.38
2024-01-03T09:32:29.987Z,85362.63
2024-01-03T09:34:57.489Z,85299.06
2024-01-03T09:37:24.823Z,85277.91
2024-01-03T09:39:54.859Z,85175.38
2024-01-03T09:42:23.185Z,85374.97
2024-01-03T09:44:51.730Z,85359.25
2024-01-03T09:47:21.976Z,85329.81
2024-01-03T09:49:49.425Z,85325.03
2024-01-03T09:52:16.821Z,85353.00
2024-01-03T09:54:44.149Z,85373.59
2024-01-03T09:57:14.223Z,85353.69
2024-01-03T09:59:41.537Z,85352.97
2024-01-03T10:02:10.719Z,85374.88
2024-01-03T10:04:37.957Z,85322.91
2024-01-03T10:07:05.668Z,85351.66
2024-01-03T10:09:44.793Z,85359.09
2024-01-03T10:12:19.590Z,85358.44
2024-01-03T10:14:47.586Z,85301.72
2024-01-03T10:17:15.031Z,85324.91
2024-01-03T10:19:42.396Z,85323.56
2024-01-03T10:22:11.094Z,85350.88
2024-01-03T10:24:49.699Z,85316.69
2024-01-03T10:27:17.410Z,85340.53
2024-01-03T10:29:44.689Z,85324.72
2024-01-03T10:32:16.244Z,85330.88
2024-01-03T10:34:43.812Z,85288.44
2024-01-03T10:37:12.551Z,85311.69
2024-01-03T10:39:44.303Z,85328.75
2024-01-03T10:42:14.102Z,85206.38
2024-01-03T10:44:42.765Z,85324.63
2024-01-03T10:47:10.042Z,85326.69
2024-01-03T10:49:37.458Z,85326.81
2024-01-03T10:52:08.159Z,85331.50
2024-01-03T10:54:44.430Z,85293.16
2024-01-03T10:57:14.041Z,85274.13
2024-01-03T10:59:52.896Z,85316.44
2024-01-03T11:02:41.294Z,85299.34
2024-01-03T11:05:27.751Z,85299.94
2024-01-03T11:08:04.658Z,85273.13
2024-01-03T11:10:50.776Z,85274.34
2024-01-03T11:13:32.014Z,85254.44
2024-01-03T11:16:01.302Z,85259.28
2024-01-03T11:18:44.217Z,85253.72
2024-01-03T11:21:36.475Z,85257.16
2024-01-03T11:24:24.137Z,85215.38
2024-01-03T11:27:01.460Z,85189.44
2024-01-03T11:29:44.736Z,85243.97
2024-01-03T11:32:40.376Z,85236.47
2024-01-03T11:35:11.056Z,85238.53
2024-01-03T11:37:40.246Z,85189.41
2024-01-03T11:40:10.163Z,85233.66
2024-01-03T11:42:40.777Z,85118.25
2024-01-03T11:45:13.558Z,85219.44
2024-01-03T11:47:51.807Z,85230.22
2024-01-03T11:50:19.200Z,85216.56
2024-01-03T11:52:49.219Z,85217.13
2024-01-03T11:55:18.956Z,85204.06
2024-01-03T11:57:48.767Z,85200.19
2024-01-03T12:00:25.589Z,85212.44
2024-01-03T12:02:56.968Z,85225.31
2024-01-03T12:05:26.082Z,85158.56
2024-01-03T12:07:54.851Z,85224.91
2024-01-03T12:10:23.676Z,85250.06
2024-01-03T12:12:55.376Z,85251.38
2024-01-03T12:18:07.450Z,85175.69
2024-01-03T12:20:35.270Z,85200.97
2024-01-03T12:23:15.219Z,85244.00
2024-01-03T12:25:44.620Z,85202.47
2024-01-03T12:28:19.147Z,85246.78
2024-01-03T12:30:46.467Z,85251.59
2024-01-03T12:33:17.381Z,85246.78
2024-01-03T12:35:53.281Z,85254.44
2024-01-03T12:38:24.447Z,85254.44
2024-01-03T12:40:51.679Z,85251.78
2024-01-03T12:43:21.024Z,85244.28
2024-01-03T12:45:50.005Z,85262.78
2024-01-03T12:48:18.047Z,85260.72
2024-01-03T12:53:22.550Z,85262.19
2024-01-03T12:58:46.290Z,85162.50
2024-01-03T13:01:14.122Z,85193.94
2024-01-03T13:06:33.596Z,85189.94
2024-01-03T13:09:03.535Z,85259.56
2024-01-03T13:11:33.484Z,85174.78
2024-01-03T13:14:00.809Z,85244.50
2024-01-03T13:16:28.219Z,85222.59
2024-01-03T13:18:55.649Z,85197.94
2024-01-03T13:21:23.034Z,85263.66
2024-01-03T13:23:50.584Z,85243.06
2024-01-03T13:26:17.757Z,85245.81
2024-01-03T13:28:45.082Z,85256.72
2024-01-03T13:31:16.405Z,85133.78
2024-01-03T13:33:46.547Z,85252.56
2024-01-03T13:36:14.008Z,85256.00
2024-01-03T13:38:41.326Z,85226.63
2024-01-03T13:41:11.118Z,85212.19
2024-01-03T13:43:39.194Z,85235.47
2024-01-03T13:46:13.527Z,85230.63
2024-01-03T13:48:41.751Z,85193.84
2024-01-03T13:51:10.324Z,85144.66
2024-01-03T13:53:37.590Z,85251.13
2024-01-03T13:57:25.892Z,85162.47
2024-01-03T13:59:54.174Z,85256.00
2024-01-03T14:02:22.953Z,85253.88
2024-01-03T14:04:51.228Z,85237.47
2024-01-03T14:07:19.412Z,85112.59
2024-01-03T14:09:47.325Z,85113.28
2024-01-03T14:12:19.150Z,85242.84
2024-01-03T14:14:48.141Z,85146.66
2024-01-03T14:17:19.505Z,85107.75
2024-01-03T14:19:48.799Z,85115.91
2024-01-03T14:22:16.588Z,85130.25
2024-01-03T14:24:44.548Z,85079.69
2024-01-03T14:27:12.112Z,85136.41
2024-01-03T14:29:39.935Z,85234.56
2024-01-03T14:32:11.937Z,85191.69
2024-01-03T14:34:45.930Z,85195.78
2024-01-03T14:37:17.855Z,85184.13
2024-01-03T14:39:49.030Z,85071.53
2024-01-03T14:42:25.171Z,85175.41
2024-01-03T14:44:52.590Z,85202.03
2024-01-03T14:47:22.391Z,85196.63
2024-01-03T14:49:49.960Z,85182.34
2024-01-03T14:52:19.249Z,85212.41
2024-01-03T14:54:47.985Z,85120.25
2024-01-03T14:57:15.401Z,85210.44
2024-01-03T14:59:42.958Z,85191.28
2024-01-03T15:02:10.668Z,85271.22
2024-01-03T15:04:41.212Z,85217.22
2024-01-03T15:07:08.683Z,85166.16
2024-01-03T15:09:39.953Z,85125.88
2024-01-03T15:12:08.296Z,85206.47
2024-01-03T15:14:38.854Z,85151.88
2024-01-03T15:17:07.459Z,85123.81
2024-01-03T15:19:35.204Z,85174.38
2024-01-03T15:22:17.022Z,85233.88
2024-01-03T15:24:46.069Z,85280.38
2024-01-03T15:27:15.484Z,85112.47
2024-01-03T15:29:43.830Z,85194.41
2024-01-03T15:32:12.131Z,85132.94
2024-01-03T15:34:42.247Z,85192.38
2024-01-03T15:37:12.321Z,85262.72
2024-01-03T15:39:40.559Z,85145.19
2024-01-03T15:42:09.477Z,85126.13
2024-01-03T15:44:40.316Z,85237.44
2024-01-03T15:47:09.130Z,85224.44
2024-01-03T15:49:37.193Z,85136.94
2024-01-03T15:52:09.910Z,85127.44
2024-01-03T15:54:46.127Z,85266.81
2024-01-03T15:57:16.276Z,85182.09
2024-01-03T15:59:45.431Z,85187.63
2024-01-03T16:02:13.443Z,85203.97
2024-01-03T16:04:49.222Z,85143.22
2024-01-03T16:07:16.584Z,85197.88
2024-01-03T16:09:43.932Z,85232.81
2024-01-03T16:12:12.333Z,85119.34
2024-01-03T16:14:41.498Z,85201.47
2024-01-03T16:17:09.720Z,85222.69
2024-01-03T16:19:37.220Z,85278.00
2024-01-03T16:22:04.561Z,85284.84
2024-01-03T16:24:32.047Z,85268.50
2024-01-03T16:27:05.961Z,85183.69
2024-01-03T16:29:34.782Z,85129.72
2024-01-03T16:32:04.522Z,85226.09
2024-01-03T16:34:32.018Z,85130.44
2024-01-03T16:37:01.720Z,85200.16
2024-01-03T16:39:33.317Z,85215.22
2024-01-03T16:42:00.894Z,85239.84
2024-01-03T16:44:28.787Z,85180.97
2024-01-03T16:46:56.642Z,85197.47
2024-01-03T16:49:24.578Z,85286.34
2024-01-03T16:51:57.962Z,85297.28
2024-01-03T16:54:25.797Z,85186.59
2024-01-03T16:56:53.642Z,85140.09
2024-01-03T16:59:21.281Z,85141.44
2024-01-03T17:01:49.893Z,85235.81
2024-01-03T17:04:18.426Z,85145.56
2024-01-03T17:06:47.332Z,85183.91
2024-01-03T17:09:17.286Z,85252.28
2024-01-03T17:11:46.216Z,85145.59
2024-01-03T17:14:16.872Z,85138.09
2024-01-03T17:16:46.299Z,85174.31
2024-01-03T17:19:14.479Z,85150.34
2024-01-03T17:21:42.407Z,85244.72
2024-01-03T17:24:10.009Z,85196.88
2024-01-03T17:26:38.486Z,85242.72
2024-01-03T17:29:08.181Z,85252.31
2024-01-03T17:31:36.793Z,85209.91
2024-01-03T17:34:05.566Z,85302.94
2024-01-03T17:36:33.576Z,85262.63
2024-01-03T17:39:01.196Z,85271.50
2024-01-03T17:41:31.411Z,85279.03
2024-01-03T17:44:00.238Z,85242.78
2024-01-03T17:46:27.949Z,85233.22
2024-01-03T17:48:56.673Z,85210.63
2024-01-03T17:51:24.236Z,85202.41
2024-01-03T17:53:57.793Z,85297.47
2024-01-03T17:56:28.083Z,85268.72
2024-01-03T17:58:56.876Z,85281.06
2024-01-03T18:01:24.535Z,85281.06
2024-01-03T18:03:55.048Z,85330.38
2024-01-03T18:06:23.165Z,85299.56
2024-01-03T18:08:50.663Z,85323.53
2024-01-03T18:11:18.260Z,85318.03
2024-01-03T18:13:45.605Z,85287.97
2024-01-03T18:16:13.623Z,85318.72
2024-01-03T18:18:41.329Z,85288.69
2024-01-03T18:21:11.464Z,85331.81
2024-01-03T18:23:39.012Z,85309.22
2024-01-03T18:26:06.571Z,85335.97
2024-01-03T18:28:33.960Z,85277.09
2024-01-03T18:31:01.864Z,85229.16
2024-01-03T18:33:29.637Z,85304.44
2024-01-03T18:35:56.898Z,85328.41
2024-01-03T18:38:24.328Z,85298.97
2024-01-03T18:40:51.624Z,85319.47
2024-01-03T18:43:20.236Z,85301.00
2024-01-03T18:45:48.313Z,85315.38
2024-01-03T18:48:16.323Z,85295.56
2024-01-03T18:50:47.491Z,85334.59
2024-01-03T18:53:15.672Z,85311.28
2024-01-03T18:55:42.961Z,85335.97
2024-01-03T18:58:10.540Z,85338.69
2024-01-03T19:00:40.040Z,85292.16
2024-01-03T19:03:07.762Z,85274.34
2024-01-03T19:05:35.273Z,85269.56
2024-01-03T19:08:06.064Z,85316.81
2024-01-03T19:10:34.058Z,85257.94
2024-01-03T19:13:26.243Z,85343.53
2024-01-03T19:15:53.501Z,85332.56
2024-01-03T19:18:20.903Z,85345.59
2024-01-03T19:20:48.589Z,85341.50
2024-01-03T19:23:15.878Z,85258.63
2024-01-03T19:25:43.464Z,85345.63
2024-01-03T19:28:14.717Z,85314.09
2024-01-03T19:30:42.285Z,85313.41
2024-01-03T19:33:10.243Z,85309.28
2024-01-03T19:35:37.866Z,85315.47
2024-01-03T19:38:05.582Z,85301.75
2024-01-03T19:40:33.333Z,85338.75
2024-01-03T19:43:00.550Z,85261.38
2024-01-03T19:45:27.706Z,85218.19
2024-01-03T19:47:55.036Z,85350.41
2024-01-03T19:50:22.497Z,85303.13
2024-01-03T19:52:49.886Z,85234.66
2024-01-03T19:55:17.194Z,85312.72
2024-01-03T19:57:44.445Z,85232.59
2024-01-03T20:00:13.192Z,85354.50
2024-01-03T20:02:41.404Z,85337.38
2024-01-03T20:05:09.459Z,85326.44
2024-01-03T20:07:36.880Z,85224.38
2024-01-03T20:10:04.445Z,85314.09
2024-01-03T20:12:31.876Z,85326.44
2024-01-03T20:15:11.479Z,85294.22
2024-01-03T20:17:39.622Z,85266.13
2024-01-03T20:20:07.481Z,85301.78
2024-01-03T20:22:35.093Z,85326.44
2024-01-03T20:25:02.747Z,85301.06
2024-01-03T20:27:30.004Z,85311.34
2024-01-03T20:30:22.256Z,85342.19
2024-01-03T20:32:49.778Z,85300.38
2024-01-03T20:35:17.147Z,85316.13
2024-01-03T20:37:44.422Z,85311.34
2024-01-03T20:40:11.970Z,85333.28
2024-01-03T20:42:41.290Z,85355.19
2024-01-03T20:45:16.504Z,85352.44
2024-01-03T20:47:44.021Z,85342.84
2024-01-03T20:50:11.650Z,85289.38
2024-01-03T20:52:41.389Z,85363.41
2024-01-03T20:55:13.646Z,85333.22
2024-01-03T20:57:43.155Z,85356.50
2024-01-03T21:00:15.192Z,85318.81
2024-01-03T21:02:42.988Z,85368.88
2024-01-03T21:05:10.480Z,85370.22
2024-01-03T21:07:37.775Z,85325.03
2024-01-03T21:10:05.435Z,85367.50
2024-01-03T21:12:34.308Z,85374.38
2024-01-03T21:15:01.771Z,85369.56
2024-01-03T21:17:31.741Z,85378.44
2024-01-03T21:20:00.478Z,85309.28
2024-01-03T21:22:27.946Z,85322.25
2024-01-03T21:24:58.739Z,85371.63
2024-01-03T21:27:45.715Z,85331.16
2024-01-03T21:30:16.014Z,85357.91
2024-01-03T21:32:43.522Z,85364.75
2024-01-03T21:35:10.785Z,85303.00
2024-01-03T21:37:38.119Z,85353.09
2024-01-03T21:40:05.940Z,85340.13
2024-01-03T21:42:33.315Z,85294.19
2024-01-03T21:45:01.303Z,85342.78
2024-01-03T21:47:28.751Z,85359.28
2024-01-03T21:49:56.287Z,85351.03
2024-01-03T21:52:23.734Z,85349.66
2024-01-03T21:54:51.048Z,85348.34
2024-01-03T21:57:18.434Z,85345.56
2024-01-03T21:59:45.789Z,85326.38
2024-01-03T22:02:13.131Z,85241.44
2024-01-03T22:04:40.378Z,85345.59
2024-01-03T22:07:07.680Z,85322.97
2024-01-03T22:09:36.328Z,85344.91
2024-01-03T22:12:07.876Z,85313.34
2024-01-03T22:14:46.964Z,85337.34
2024-01-03T22:17:14.682Z,85312.00
2024-01-03T22:19:43.867Z,85292.13
2024-01-03T22:22:11.438Z,85277.06
2024-01-03T22:24:40.635Z,85278.44
2024-01-03T22:27:08.024Z,85299.69
2024-01-03T22:29:35.527Z,85242.84
2024-01-03T22:32:02.918Z,85307.22
2024-01-03T22:34:30.659Z,85296.25
2024-01-03T22:36:57.995Z,85303.13
2024-01-03T22:39:25.447Z,85301.06
2024-01-03T22:41:52.639Z,85327.78
2024-01-03T22:44:20.040Z,85281.19
2024-01-03T22:46:49.265Z,85288.06
2024-01-03T22:49:18.334Z,85290.78
2024-01-03T22:51:46.515Z,85286.69
2024-01-03T22:54:13.837Z,85309.97
2024-01-03T22:56:41.306Z,85322.31
2024-01-03T22:59:09.222Z,85319.56
2024-01-03T23:01:39.220Z,85316.84
2024-01-03T23:04:06.672Z,85279.16
2024-01-03T23:06:35.510Z,85264.78
2024-01-03T23:09:03.792Z,85271.59
2024-01-03T23:11:31.362Z,85280.50
2024-01-03T23:13:58.703Z,85244.25
2024-01-03T23:16:26.149Z,85243.53
2024-01-03T23:18:55.082Z,85288.00
2024-01-03T23:21:23.049Z,85286.66
2024-01-03T23:23:50.382Z,85234.66
2024-01-03T23:26:18.706Z,85226.41
2024-01-03T23:28:49.912Z,85268.16
2024-01-03T23:31:18.025Z,85274.31
2024-01-03T23:33:47.508Z,85227.75
2024-01-03T23:36:16.327Z,85231.16
2024-01-03T23:38:43.677Z,85234.53
2024-01-03T23:41:16.940Z,85268.75
2024-01-03T23:43:47.091Z,85257.81
2024-01-03T23:46:15.910Z,85255.75
2024-01-03T23:48:43.765Z,85268.72
2024-01-03T23:51:17.247Z,85269.50
2024-01-03T23:53:44.639Z,85277.03
2024-01-03T23:56:22.181Z,85281.09
2024-01-03T23:58:50.149Z,85267.34
